createdAt,value
2022-10-22T00:00:06.979Z,15.88
2022-10-22T00:02:36.129Z,14.50
2022-10-22T00:05:04.817Z,13.70
2022-10-22T00:07:33.059Z,13.82
2022-10-22T00:10:00.867Z,7.80
2022-10-22T00:12:29.413Z,10.60
2022-10-22T00:14:57.146Z,8.50
2022-10-22T00:17:24.922Z,6.72
2022-10-22T00:19:53.900Z,6.20
2022-10-22T00:22:21.560Z,6.30
2022-10-22T00:24:49.186Z,7.43
2022-10-22T00:27:16.795Z,9.13
2022-10-22T00:29:44.616Z,8.23
2022-10-22T00:32:12.359Z,8.07
2022-10-22T00:34:40.060Z,10.10
2022-10-22T00:37:09.197Z,10.98
2022-10-22T00:39:36.900Z,8.88
2022-10-22T00:42:05.133Z,8.63
2022-10-22T00:45:16.888Z,9.00
2022-10-22T00:47:49.626Z,7.20
2022-10-22T00:52:48.758Z,6.55
2022-10-22T00:55:17.555Z,6.25
2022-10-22T00:57:46.804Z,11.70
2022-10-22T01:00:15.396Z,8.90
2022-10-22T01:02:43.689Z,2.05
2022-10-22T01:05:11.786Z,1.67
2022-10-22T01:07:43.383Z,2.13
2022-10-22T01:10:21.209Z,2.03
2022-10-22T01:12:58.739Z,3.88
2022-10-22T01:15:34.096Z,2.80
2022-10-22T01:18:07.139Z,2.17
2022-10-22T01:20:55.227Z,2.70
2022-10-22T01:23:46.928Z,2.60
2022-10-22T01:26:24.959Z,1.83
2022-10-22T01:29:03.417Z,2.08
2022-10-22T01:31:34.678Z,1.27
2022-10-22T01:34:04.260Z,2.30
2022-10-22T01:36:34.007Z,3.75
2022-10-22T01:39:03.351Z,6.00
2022-10-22T01:41:31.464Z,2.15
2022-10-22T01:44:00.544Z,1.35
2022-10-22T01:46:30.170Z,2.20
2022-10-22T01:49:17.727Z,1.67
2022-10-22T01:52:01.660Z,2.45
2022-10-22T01:54:37.341Z,3.58
2022-10-22T01:57:14.712Z,2.25
2022-10-22T01:59:54.050Z,3.58
2022-10-22T02:02:34.571Z,1.58
2022-10-22T02:05:06.573Z,2.72
2022-10-22T02:07:39.282Z,1.35
2022-10-22T02:10:10.219Z,1.20
2022-10-22T02:12:41.234Z,2.38
2022-10-22T02:15:13.634Z,1.42
2022-10-22T02:17:43.636Z,2.70
2022-10-22T02:20:16.819Z,1.73
2022-10-22T02:22:44.759Z,4.45
2022-10-22T02:25:13.079Z,1.33
2022-10-22T02:27:44.521Z,1.27
2022-10-22T02:30:17.617Z,2.55
2022-10-22T02:32:51.812Z,3.75
2022-10-22T02:35:22.799Z,4.03
2022-10-22T02:37:52.001Z,4.30
2022-10-22T02:40:20.777Z,1.35
2022-10-22T02:42:50.685Z,3.65
2022-10-22T02:45:21.600Z,1.30
2022-10-22T02:47:49.409Z,3.75
2022-10-22T02:50:17.199Z,2.20
2022-10-22T02:52:44.900Z,1.85
2022-10-22T02:55:12.654Z,1.20
2022-10-22T02:57:40.579Z,2.75
2022-10-22T03:00:10.411Z,2.85
2022-10-22T03:02:39.623Z,3.45
2022-10-22T03:05:08.343Z,1.98
2022-10-22T03:07:36.602Z,1.75
2022-10-22T03:10:04.727Z,5.35
2022-10-22T03:12:32.781Z,2.47
2022-10-22T03:15:00.462Z,1.75
2022-10-22T03:17:28.118Z,2.95
2022-10-22T03:19:57.129Z,3.25
2022-10-22T03:22:28.491Z,2.47
2022-10-22T03:25:00.050Z,4.10
2022-10-22T03:27:29.832Z,4.88
2022-10-22T03:29:59.097Z,1.70
2022-10-22T03:32:26.766Z,1.45
2022-10-22T03:34:54.533Z,2.92
2022-10-22T03:37:25.301Z,2.28
2022-10-22T03:39:53.945Z,3.90
2022-10-22T03:42:22.153Z,2.63
2022-10-22T03:44:49.863Z,3.80
2022-10-22T03:47:17.530Z,7.07
2022-10-22T03:49:45.263Z,2.67
2022-10-22T03:52:15.179Z,2.65
2022-10-22T03:54:44.960Z,1.40
2022-10-22T03:57:12.925Z,1.98
2022-10-22T03:59:43.046Z,2.28
2022-10-22T04:02:11.575Z,1.30
2022-10-22T04:04:39.847Z,1.77
2022-10-22T04:07:09.201Z,3.10
2022-10-22T04:09:37.147Z,2.42
2022-10-22T04:12:07.999Z,4.82
2022-10-22T04:14:35.633Z,2.53
2022-10-22T04:17:03.554Z,2.55
2022-10-22T04:19:31.200Z,4.70
2022-10-22T04:21:59.767Z,2.40
2022-10-22T04:24:27.952Z,3.53
2022-10-22T04:26:55.978Z,1.92
2022-10-22T04:29:25.731Z,2.60
2022-10-22T04:31:53.846Z,1.58
2022-10-22T04:34:21.627Z,3.95
2022-10-22T04:36:49.342Z,9.43
2022-10-22T04:39:17.078Z,2.25
2022-10-22T04:41:44.813Z,3.13
2022-10-22T04:44:16.842Z,4.95
2022-10-22T04:46:47.352Z,1.48
2022-10-22T04:49:15.066Z,1.45
2022-10-22T04:51:42.701Z,1.17
2022-10-22T04:54:10.450Z,0.98
2022-10-22T04:56:38.151Z,0.70
2022-10-22T04:59:07.731Z,2.63
2022-10-22T05:01:40.180Z,1.80
2022-10-22T05:04:13.820Z,0.93
2022-10-22T05:06:41.564Z,0.98
2022-10-22T05:09:13.570Z,0.95
2022-10-22T05:11:45.407Z,3.03
2022-10-22T05:14:14.342Z,0.68
2022-10-22T05:16:42.123Z,1.23
2022-10-22T05:19:17.209Z,1.00
2022-10-22T05:21:45.181Z,0.80
2022-10-22T05:24:12.952Z,1.15
2022-10-22T05:26:40.662Z,0.75
2022-10-22T05:29:08.492Z,0.88
2022-10-22T05:31:36.449Z,1.02
2022-10-22T05:34:04.127Z,2.92
2022-10-22T05:36:33.231Z,2.33
2022-10-22T05:39:01.097Z,0.93
2022-10-22T05:41:30.220Z,1.40
2022-10-22T05:43:58.977Z,1.08
2022-10-22T05:46:29.098Z,1.10
2022-10-22T05:48:58.334Z,2.00
2022-10-22T05:51:27.602Z,1.95
2022-10-22T05:53:58.713Z,1.40
2022-10-22T05:56:27.505Z,2.63
2022-10-22T05:58:55.302Z,3.35
2022-10-22T06:01:25.029Z,1.75
2022-10-22T06:03:55.549Z,0.98
2022-10-22T06:06:28.587Z,2.40
2022-10-22T06:09:02.429Z,1.10
2022-10-22T06:11:34.159Z,4.53
2022-10-22T06:16:31.276Z,1.80
2022-10-22T06:19:00.778Z,6.18
2022-10-22T06:21:29.043Z,3.58
2022-10-22T06:23:59.304Z,4.38
2022-10-22T06:26:27.153Z,3.42
2022-10-22T06:28:56.132Z,4.32
2022-10-22T06:31:23.951Z,3.50
2022-10-22T06:33:51.669Z,5.38
2022-10-22T06:36:20.965Z,2.50
2022-10-22T06:38:48.719Z,2.17
2022-10-22T06:41:18.156Z,3.78
2022-10-22T06:43:47.557Z,2.50
2022-10-22T06:46:19.921Z,3.95
2022-10-22T06:51:18.225Z,3.05
2022-10-22T06:53:46.291Z,3.75
2022-10-22T06:56:17.798Z,1.75
2022-10-22T06:58:48.431Z,2.45
2022-10-22T07:01:18.094Z,1.38
2022-10-22T07:03:45.914Z,3.85
2022-10-22T07:06:15.389Z,3.33
2022-10-22T07:08:43.423Z,2.08
2022-10-22T07:11:12.427Z,3.40
2022-10-22T07:13:42.017Z,5.45
2022-10-22T07:16:10.344Z,3.45
2022-10-22T07:18:40.279Z,4.57
2022-10-22T07:21:09.757Z,3.13
2022-10-22T07:23:38.022Z,5.57
2022-10-22T07:26:07.469Z,6.55
2022-10-22T07:28:36.524Z,6.60
2022-10-22T07:31:06.110Z,4.25
2022-10-22T07:33:34.245Z,7.28
2022-10-22T07:36:04.121Z,6.75
2022-10-22T07:38:32.576Z,3.17
2022-10-22T07:41:00.826Z,4.13
2022-10-22T07:43:28.801Z,3.17
2022-10-22T07:45:56.795Z,8.88
2022-10-22T07:48:25.945Z,18.70
2022-10-22T07:50:53.663Z,12.18
2022-10-22T07:53:22.237Z,11.48
2022-10-22T07:55:50.169Z,6.72
2022-10-22T07:58:18.109Z,4.03
2022-10-22T08:00:46.049Z,6.60
2022-10-22T08:03:14.992Z,3.30
2022-10-22T08:05:44.652Z,5.45
2022-10-22T08:08:12.930Z,2.05
2022-10-22T08:10:40.910Z,3.00
2022-10-22T08:13:09.486Z,1.90
2022-10-22T08:15:37.435Z,2.35
2022-10-22T08:18:05.708Z,2.95
2022-10-22T08:20:33.487Z,1.25
2022-10-22T08:23:02.904Z,1.20
2022-10-22T08:25:30.653Z,3.00
2022-10-22T08:27:58.440Z,3.63
2022-10-22T08:30:27.772Z,3.45
2022-10-22T08:32:55.476Z,1.58
2022-10-22T08:35:23.833Z,1.35
2022-10-22T08:37:51.607Z,4.00
2022-10-22T08:40:26.503Z,3.00
2022-10-22T08:43:40.408Z,2.42
2022-10-22T08:46:24.307Z,2.88
2022-10-22T08:48:54.939Z,3.58
2022-10-22T08:51:26.830Z,1.90
2022-10-22T08:54:14.713Z,2.08
2022-10-22T08:56:46.988Z,4.28
2022-10-22T08:59:21.248Z,3.30
2022-10-22T09:01:52.920Z,1.00
2022-10-22T09:04:26.473Z,1.00
2022-10-22T09:06:58.924Z,2.60
2022-10-22T09:09:31.891Z,1.15
2022-10-22T09:12:02.336Z,2.80
2022-10-22T09:14:31.421Z,1.48
2022-10-22T09:17:17.401Z,1.67
2022-10-22T09:19:59.504Z,2.80
2022-10-22T09:25:20.953Z,2.20
2022-10-22T09:27:52.485Z,3.85
2022-10-22T09:30:23.647Z,2.00
2022-10-22T09:32:53.279Z,3.28
2022-10-22T09:35:25.319Z,1.70
2022-10-22T09:37:55.010Z,1.55
2022-10-22T09:40:23.599Z,1.15
2022-10-22T09:42:52.720Z,3.33
2022-10-22T09:45:22.676Z,5.07
2022-10-22T09:48:01.537Z,3.30
2022-10-22T09:50:38.087Z,2.22
2022-10-22T09:53:13.620Z,1.25
2022-10-22T09:55:42.645Z,2.78
2022-10-22T09:58:14.685Z,3.55
2022-10-22T10:00:46.855Z,1.42
2022-10-22T10:03:19.562Z,2.95
2022-10-22T10:05:49.319Z,5.43
2022-10-22T10:08:18.645Z,1.80
2022-10-22T10:10:49.408Z,1.95
2022-10-22T10:13:39.659Z,6.38
2022-10-22T10:16:17.232Z,1.95
2022-10-22T10:18:58.201Z,3.63
2022-10-22T10:21:36.408Z,4.57
2022-10-22T10:24:22.086Z,1.75
2022-10-22T10:26:58.615Z,1.95
2022-10-22T10:29:42.096Z,1.77
2022-10-22T10:32:28.895Z,3.38
2022-10-22T10:35:12.531Z,1.58
2022-10-22T10:37:47.368Z,1.63
2022-10-22T10:40:28.185Z,2.72
2022-10-22T10:43:01.292Z,3.60
2022-10-22T10:45:39.839Z,3.15
2022-10-22T10:48:46.625Z,1.38
2022-10-22T10:51:28.792Z,3.92
2022-10-22T10:54:15.068Z,3.00
2022-10-22T10:56:48.349Z,1.20
2022-10-22T10:59:23.892Z,2.50
2022-10-22T11:02:11.536Z,3.33
2022-10-22T11:05:01.164Z,1.42
2022-10-22T11:07:35.729Z,1.17
2022-10-22T11:10:11.281Z,4.18
2022-10-22T11:12:43.424Z,1.52
2022-10-22T11:15:22.896Z,4.38
2022-10-22T11:17:54.158Z,2.45
2022-10-22T11:20:26.735Z,4.55
2022-10-22T11:23:18.997Z,3.05
2022-10-22T11:25:49.774Z,2.00
2022-10-22T11:28:23.103Z,3.00
2022-10-22T11:30:57.902Z,3.75
2022-10-22T11:33:37.896Z,2.17
2022-10-22T11:36:07.485Z,2.88
2022-10-22T11:38:36.767Z,2.70
2022-10-22T11:41:08.923Z,1.98
2022-10-22T11:43:54.084Z,4.55
2022-10-22T11:46:35.846Z,2.65
2022-10-22T11:49:16.943Z,2.07
2022-10-22T11:51:46.685Z,4.32
2022-10-22T11:54:31.799Z,6.25
2022-10-22T11:57:19.422Z,4.68
2022-10-22T11:59:51.550Z,3.88
2022-10-22T12:02:44.381Z,4.18
2022-10-22T12:05:36.262Z,2.03
2022-10-22T12:08:17.049Z,5.07
2022-10-22T12:10:58.650Z,6.15
2022-10-22T12:13:29.597Z,6.35
2022-10-22T12:15:59.969Z,6.45
2022-10-22T12:18:32.831Z,6.35
2022-10-22T12:21:02.002Z,5.60
2022-10-22T12:23:35.231Z,4.80
2022-10-22T12:26:05.299Z,4.07
2022-10-22T12:28:40.515Z,3.75
2022-10-22T12:31:16.913Z,2.75
2022-10-22T12:33:44.855Z,4.53
2022-10-22T12:36:19.121Z,7.10
2022-10-22T12:38:48.229Z,5.75
2022-10-22T12:41:16.110Z,3.05
2022-10-22T12:43:43.841Z,4.15
2022-10-22T12:46:13.933Z,2.30
2022-10-22T12:48:45.932Z,2.15
2022-10-22T12:51:20.582Z,2.72
2022-10-22T12:53:50.669Z,3.95
2022-10-22T12:56:23.501Z,5.40
2022-10-22T12:58:56.482Z,3.50
2022-10-22T13:01:28.078Z,5.28
2022-10-22T13:04:08.066Z,3.70
2022-10-22T13:06:37.363Z,6.53
2022-10-22T13:09:14.548Z,3.95
2022-10-22T13:11:49.574Z,2.65
2022-10-22T13:14:21.540Z,2.97
2022-10-22T13:17:07.179Z,4.32
2022-10-22T13:19:40.487Z,6.53
2022-10-22T13:22:29.561Z,4.47
2022-10-22T13:24:59.924Z,2.30
2022-10-22T13:27:29.828Z,2.67
2022-10-22T13:30:01.606Z,2.58
2022-10-22T13:32:31.999Z,7.05
2022-10-22T13:35:01.226Z,3.85
2022-10-22T13:37:34.080Z,6.95
2022-10-22T13:40:02.039Z,6.35
2022-10-22T13:42:29.913Z,3.95
2022-10-22T13:44:57.724Z,2.53
2022-10-22T13:47:28.945Z,4.05
2022-10-22T13:50:01.137Z,7.13
2022-10-22T13:52:36.028Z,5.68
2022-10-22T13:55:14.158Z,3.47
2022-10-22T13:57:41.932Z,9.40
2022-10-22T14:00:13.281Z,7.88
2022-10-22T14:02:41.868Z,3.47
2022-10-22T14:05:11.284Z,5.78
2022-10-22T14:07:41.266Z,2.97
2022-10-22T14:10:17.543Z,3.40
2022-10-22T14:12:49.282Z,6.05
2022-10-22T14:15:20.830Z,4.68
2022-10-22T14:17:51.546Z,2.92
2022-10-22T14:20:22.231Z,4.78
2022-10-22T14:22:52.476Z,8.40
2022-10-22T14:25:22.740Z,6.07
2022-10-22T14:27:51.100Z,6.57
2022-10-22T14:30:21.123Z,7.72
2022-10-22T14:32:49.426Z,6.35
2022-10-22T14:35:19.830Z,4.88
2022-10-22T14:37:47.833Z,6.28
2022-10-22T14:40:20.288Z,4.45
2022-10-22T14:45:19.513Z,2.85
2022-10-22T14:47:47.259Z,4.85
2022-10-22T14:50:15.358Z,3.35
2022-10-22T14:52:44.435Z,4.75
2022-10-22T14:55:14.280Z,4.90
2022-10-22T14:57:43.769Z,10.77
2022-10-22T15:00:14.660Z,5.65
2022-10-22T15:02:42.654Z,4.93
2022-10-22T15:05:10.927Z,3.38
2022-10-22T15:07:39.688Z,4.88
2022-10-22T15:10:09.038Z,4.22
2022-10-22T15:12:37.637Z,3.45
2022-10-22T15:15:08.325Z,5.18
2022-10-22T15:17:36.311Z,3.72
2022-10-22T15:20:05.591Z,7.97
2022-10-22T15:22:35.317Z,4.25
2022-10-22T15:25:04.716Z,5.32
2022-10-22T15:27:32.546Z,5.18
2022-10-22T15:30:00.442Z,6.65
2022-10-22T15:32:29.937Z,3.90
2022-10-22T15:34:57.713Z,3.30
2022-10-22T15:37:25.616Z,3.35
2022-10-22T15:39:53.680Z,10.55
2022-10-22T15:42:23.308Z,3.20
2022-10-22T15:44:57.992Z,5.65
2022-10-22T15:47:28.530Z,4.13
2022-10-22T15:49:57.669Z,10.32
2022-10-22T15:52:25.483Z,5.63
2022-10-22T15:54:53.359Z,7.75
2022-10-22T15:57:21.058Z,7.50
2022-10-22T15:59:50.128Z,6.60
2022-10-22T16:02:18.069Z,4.13
2022-10-22T16:04:45.902Z,5.97
2022-10-22T16:07:15.129Z,4.82
2022-10-22T16:09:42.962Z,6.18
2022-10-22T16:12:12.185Z,4.35
2022-10-22T16:14:42.131Z,4.05
2022-10-22T16:17:10.097Z,4.97
2022-10-22T16:19:37.804Z,6.38
2022-10-22T16:22:05.617Z,4.68
2022-10-22T16:24:34.725Z,12.52
2022-10-22T16:27:03.410Z,6.55
2022-10-22T16:29:31.187Z,7.40
2022-10-22T16:31:59.201Z,5.05
2022-10-22T16:34:27.640Z,6.75
2022-10-22T16:36:57.104Z,4.03
2022-10-22T16:39:25.043Z,4.28
2022-10-22T16:41:54.412Z,3.88
2022-10-22T16:44:22.188Z,4.13
2022-10-22T16:46:49.940Z,7.13
2022-10-22T16:49:17.758Z,3.42
2022-10-22T16:51:45.711Z,4.35
2022-10-22T16:54:15.597Z,4.70
2022-10-22T16:56:43.421Z,7.20
2022-10-22T16:59:12.557Z,10.10
2022-10-22T17:01:41.415Z,9.43
2022-10-22T17:04:09.721Z,8.10
2022-10-22T17:06:38.045Z,8.80
2022-10-22T17:09:06.079Z,7.05
2022-10-22T17:11:36.377Z,6.80
2022-10-22T17:14:06.815Z,12.65
2022-10-22T17:16:36.026Z,15.27
2022-10-22T17:19:05.793Z,9.32
2022-10-22T17:21:33.968Z,4.28
2022-10-22T17:24:01.726Z,5.95
2022-10-22T17:26:30.537Z,5.93
2022-10-22T17:28:58.753Z,7.43
2022-10-22T17:31:27.997Z,17.50
2022-10-22T17:33:57.983Z,7.88
2022-10-22T17:36:26.161Z,4.75
2022-10-22T17:38:57.455Z,5.30
2022-10-22T17:41:28.088Z,8.05
2022-10-22T17:43:56.922Z,9.27
2022-10-22T17:46:26.661Z,8.13
2022-10-22T17:48:57.764Z,12.65
2022-10-22T17:51:27.295Z,7.22
2022-10-22T17:53:55.337Z,6.35
2022-10-22T17:56:25.517Z,6.13
2022-10-22T17:58:54.029Z,7.97
2022-10-22T18:01:23.984Z,6.07
2022-10-22T18:03:53.486Z,4.65
2022-10-22T18:06:23.468Z,3.75
2022-10-22T18:08:51.280Z,3.42
2022-10-22T18:11:21.031Z,4.47
2022-10-22T18:13:50.823Z,7.00
2022-10-22T18:16:18.768Z,6.78
2022-10-22T18:18:46.822Z,4.03
2022-10-22T18:21:15.582Z,16.13
2022-10-22T18:23:45.029Z,4.28
2022-10-22T18:26:12.865Z,5.85
2022-10-22T18:28:40.737Z,7.97
2022-10-22T18:31:10.256Z,5.47
2022-10-22T18:33:38.807Z,6.32
2022-10-22T18:36:08.719Z,12.15
2022-10-22T18:38:38.163Z,9.90
2022-10-22T18:41:09.415Z,13.10
2022-10-22T18:43:37.918Z,13.77
2022-10-22T18:46:07.930Z,12.43
2022-10-22T18:48:36.146Z,13.80
2022-10-22T18:51:07.315Z,15.30
2022-10-22T18:53:35.462Z,14.65
2022-10-22T18:56:05.436Z,14.55
2022-10-22T18:58:39.080Z,13.40
2022-10-22T19:01:10.406Z,12.02
2022-10-22T19:03:38.442Z,12.73
2022-10-22T19:06:06.712Z,11.45
2022-10-22T19:08:36.491Z,13.43
2022-10-22T19:11:11.293Z,11.85
2022-10-22T19:13:40.810Z,10.88
2022-10-22T19:16:12.271Z,10.13
2022-10-22T19:18:40.337Z,14.88
2022-10-22T19:21:08.135Z,9.43
2022-10-22T19:23:36.283Z,10.90
2022-10-22T19:26:06.947Z,10.77
2022-10-22T19:28:35.144Z,12.50
2022-10-22T19:31:06.198Z,12.65
2022-10-22T19:33:34.805Z,12.50
2022-10-22T19:36:05.515Z,16.15
2022-10-22T19:38:33.548Z,12.63
2022-10-22T19:41:01.400Z,12.32
2022-10-22T19:43:29.716Z,9.75
2022-10-22T19:45:57.623Z,11.38
2022-10-22T19:48:28.725Z,7.82
2022-10-22T19:51:02.751Z,7.43
2022-10-22T19:53:31.104Z,11.30
2022-10-22T19:55:59.686Z,7.95
2022-10-22T19:58:28.323Z,8.18
2022-10-22T20:00:56.321Z,7.60
2022-10-22T20:03:24.179Z,6.95
2022-10-22T20:05:53.476Z,6.93
2022-10-22T20:08:21.307Z,10.90
2022-10-22T20:10:49.763Z,11.25
2022-10-22T20:13:18.449Z,8.82
2022-10-22T20:15:48.773Z,9.65
2022-10-22T20:18:16.928Z,11.88
2022-10-22T20:20:44.937Z,10.85
2022-10-22T20:23:14.161Z,11.20
2022-10-22T20:25:42.854Z,9.18
2022-10-22T20:28:10.772Z,11.20
2022-10-22T20:30:42.137Z,10.38
2022-10-22T20:33:09.915Z,11.65
2022-10-22T20:35:38.361Z,9.85
2022-10-22T20:38:07.391Z,18.00
2022-10-22T20:40:37.599Z,18.77
2022-10-22T20:43:05.929Z,16.63
2022-10-22T20:45:36.530Z,8.57
2022-10-22T20:48:05.513Z,11.35
2022-10-22T20:50:33.658Z,11.50
2022-10-22T20:53:01.401Z,12.73
2022-10-22T20:55:29.200Z,13.75
2022-10-22T20:57:58.311Z,10.82
2022-10-22T21:00:27.136Z,13.27
2022-10-22T21:02:54.887Z,10.82
2022-10-22T21:05:22.635Z,11.43
2022-10-22T21:07:50.476Z,13.75
2022-10-22T21:10:18.287Z,13.90
2022-10-22T21:12:45.986Z,10.38
2022-10-22T21:15:15.167Z,9.85
2022-10-22T21:17:42.884Z,10.27
2022-10-22T21:22:43.884Z,10.18
2022-10-22T21:25:11.853Z,14.20
2022-10-22T21:27:39.555Z,8.88
2022-10-22T21:30:08.231Z,11.27
2022-10-22T21:32:37.330Z,11.23
2022-10-22T21:35:05.506Z,11.18
2022-10-22T21:37:35.057Z,8.50
2022-10-22T21:40:03.807Z,9.18
2022-10-22T21:42:31.630Z,9.32
2022-10-22T21:44:59.431Z,5.60
2022-10-22T21:47:27.318Z,13.30
2022-10-22T21:49:56.446Z,8.88
2022-10-22T21:52:24.207Z,19.88
2022-10-22T21:54:51.934Z,17.58
2022-10-22T21:57:19.581Z,24.88
2022-10-22T21:59:47.580Z,15.68
2022-10-22T22:02:15.329Z,12.13
2022-10-22T22:04:43.096Z,14.57
2022-10-22T22:07:12.211Z,10.20
2022-10-22T22:09:40.061Z,9.50
2022-10-22T22:12:07.789Z,8.35
2022-10-22T22:14:36.633Z,10.65
2022-10-22T22:17:04.439Z,12.18
2022-10-22T22:19:32.094Z,9.63
2022-10-22T22:21:59.796Z,14.88
2022-10-22T22:24:29.452Z,17.40
2022-10-22T22:26:57.283Z,10.15
2022-10-22T22:29:24.965Z,11.90
2022-10-22T22:31:52.754Z,8.57
2022-10-22T22:34:20.510Z,9.63
2022-10-22T22:36:49.359Z,11.68
2022-10-22T22:39:19.710Z,11.43
2022-10-22T22:41:48.769Z,15.70
2022-10-22T22:44:16.649Z,12.77
2022-10-22T22:46:44.724Z,12.85
2022-10-22T22:49:13.319Z,11.07
2022-10-22T22:51:41.108Z,13.60
2022-10-22T22:54:08.852Z,11.93
2022-10-22T22:56:36.764Z,12.38
2022-10-22T22:59:07.096Z,9.18
2022-10-22T23:01:36.830Z,10.10
2022-10-22T23:04:07.123Z,15.05
2022-10-22T23:06:37.643Z,17.23
2022-10-22T23:09:06.177Z,7.80
2022-10-22T23:11:34.694Z,8.85
2022-10-22T23:14:04.554Z,10.68
2022-10-22T23:16:36.689Z,8.15
2022-10-22T23:19:05.880Z,17.20
2022-10-22T23:21:36.559Z,12.52
2022-10-22T23:24:07.582Z,8.38
2022-10-22T23:26:37.958Z,9.88
2022-10-22T23:29:07.679Z,11.38
2022-10-22T23:31:36.785Z,13.90
2022-10-22T23:34:04.553Z,11.55
2022-10-22T23:36:32.273Z,11.55
2022-10-22T23:39:00.108Z,8.65
2022-10-22T23:41:27.781Z,11.63
2022-10-22T23:43:55.444Z,9.85
2022-10-22T23:46:23.234Z,12.02
2022-10-22T23:48:53.741Z,11.10
2022-10-22T23:51:22.104Z,15.70
2022-10-22T23:53:55.932Z,12.30
2022-10-22T23:56:23.937Z,10.93
2022-10-22T23:58:52.558Z,11.00
